Current | Forecast
Updated: 12:30 PM EEST on April 21, 2018
Observed at Kharkiv, Ukraine
Temperature 18°C
Humidity 34%
Dew Point 2°C
Wind West at 25 km/h
Pressure 1011 hPa (Falling)
Conditions Clear
Visibility -
UV N/A
Clouds
Yesterday's Maximum 17°C
Yesterday's Minimum 8°C approx.
Yesterday's Heating Degree Days 11 approx.
Sunrise5:35 AM EEST
Sunset7:41 PM EEST
Moon Rise9:40 AM EEST
Moon Set12:43 AM EEST
Moon PhaseMoon Phase
Waxing Crescent
Raw METARMETAR UKHH 210930Z 28007MPS 240V320 CAVOK 18/02 Q1011 R25/0///66 NOSIG


Monday
. High: 60° F.
Tuesday
. High: 60° F.
Wednesday
. High: 62° F.
Thursday
. High: 64° F.
Friday
. High: 62° F.
Saturday
. High: 64° F.
Sunday
. High: 68° F.
Monday
. High: 66° F.

Units: English | Metric

Find the Weather for any City, State or Zipcode, or Country:

U.S. State List | Severe Weather | Tropical Storms | Ski Conditions
United States | Canada | Central America | South America | Asia | Europe | Australia | Africa | Islands

Weather Underground

© Copyright 2018
The Weather Company, LLC